Time;durP1;ratioP1;P1;durP2;ratioP2;P2;SDS_P1;SDS_P2;PMS_P1;PMS_P2;Temp;Humidity;BMP_temperature;BMP_pressure;BME280_temperature;BME280_humidity;BME280_pressure;Samples;Min_cycle;Max_cycle;Signal;HPM_P1;HPM_P2
2023/10/06 00:02:28;;;;;;;8.82;5.25;;;;;;;;;;5055222;28;20035;-58
2023/10/06 00:04:54;;;;;;;9.73;4.55;;;;;;;;;;5056035;28;20036;-58
2023/10/06 00:07:23;;;;;;;10.00;5.22;;;;;;;;;;5054923;28;20025;-58
2023/10/06 00:09:49;;;;;;;9.30;5.25;;;;;;;;;;5055688;28;20021;-58
2023/10/06 00:12:16;;;;;;;7.85;4.22;;;;;;;;;;5054982;28;20452;-58
2023/10/06 00:14:43;;;;;;;8.32;5.00;;;;;;;;;;5054992;28;20455;-58
2023/10/06 00:17:15;;;;;;;8.00;5.00;;;;;;;;;;5054846;28;20035;-58
2023/10/06 00:19:42;;;;;;;6.00;5.03;;;;;;;;;;5055162;28;20082;-58
2023/10/06 00:22:18;;;;;;;6.53;5.25;;;;;;;;;;5055220;28;20033;-58
2023/10/06 00:24:50;;;;;;;8.25;5.60;;;;;;;;;;5054618;28;20111;-58
2023/10/06 00:27:23;;;;;;;8.20;5.00;;;;;;;;;;5055182;28;20044;-58
2023/10/06 00:29:54;;;;;;;9.35;5.95;;;;;;;;;;5055434;28;20091;-58
2023/10/06 00:32:24;;;;;;;;;;;;;;;;;;5055196;28;20123;-58
2023/10/06 00:34:52;;;;;;;6.75;4.63;;;;;;;;;;5054750;28;19984;-58
2023/10/06 00:37:22;;;;;;;7.38;4.60;;;;;;;;;;5054473;28;20032;-58
2023/10/06 00:39:50;;;;;;;4.80;4.23;;;;;;;;;;5054509;28;20029;-58
2023/10/06 00:42:19;;;;;;;9.27;5.50;;;;;;;;;;5054897;28;20032;-58
2023/10/06 00:44:46;;;;;;;9.80;6.45;;;;;;;;;;5054332;28;20151;-58
2023/10/06 00:47:13;;;;;;;9.43;5.50;;;;;;;;;;5054314;28;20055;-58
2023/10/06 00:49:43;;;;;;;7.45;5.63;;;;;;;;;;5054824;28;20063;-58
2023/10/06 00:52:11;;;;;;;8.70;5.38;;;;;;;;;;5054917;28;20033;-58
2023/10/06 00:54:37;;;;;;;7.20;4.97;;;;;;;;;;5054460;28;20079;-58
2023/10/06 00:57:08;;;;;;;7.15;5.43;;;;;;;;;;5054329;28;20025;-58
2023/10/06 00:59:38;;;;;;;8.38;5.18;;;;;;;;;;5055412;28;20017;-58
2023/10/06 01:02:08;;;;;;;7.25;6.13;;;;;;;;;;5053987;28;20035;-58
2023/10/06 01:04:38;;;;;;;9.75;5.47;;;;;;;;;;5054512;28;20107;-58
2023/10/06 01:07:04;;;;;;;7.47;5.65;;;;;;;;;;5053917;28;20036;-58
2023/10/06 01:09:36;;;;;;;7.38;5.85;;;;;;;;;;5053979;28;20489;-58
2023/10/06 01:12:06;;;;;;;7.13;6.07;;;;;;;;;;5054356;28;20030;-58
2023/10/06 01:14:34;;;;;;;7.40;5.93;;;;;;;;;;5053649;28;20563;-58
2023/10/06 01:17:19;;;;;;;7.60;6.35;;;;;;;;;;5054307;28;20056;-58
2023/10/06 01:19:48;;;;;;;14.73;7.57;;;;;;;;;;5054022;28;20112;-58
2023/10/06 01:22:41;;;;;;;9.07;7.47;;;;;;;;;;5054807;28;20086;-58
2023/10/06 01:25:12;;;;;;;6.82;6.13;;;;;;;;;;5054268;28;20029;-58
2023/10/06 01:27:38;;;;;;;8.98;6.97;;;;;;;;;;5054439;28;20032;-58
2023/10/06 01:30:17;;;;;;;7.32;5.65;;;;;;;;;;5053646;28;20025;-58
2023/10/06 01:32:44;;;;;;;8.30;6.35;;;;;;;;;;5054047;28;20082;-58
2023/10/06 01:35:13;;;;;;;9.95;7.20;;;;;;;;;;5053664;28;20045;-58
2023/10/06 01:37:43;;;;;;;7.93;6.60;;;;;;;;;;5053285;28;20028;-58
2023/10/06 01:40:35;;;;;;;8.95;7.22;;;;;;;;;;5054301;28;20029;-58
2023/10/06 01:43:09;;;;;;;13.25;7.10;;;;;;;;;;5054134;28;20387;-58
2023/10/06 01:45:35;;;;;;;8.77;6.95;;;;;;;;;;5054026;28;20025;-58
2023/10/06 01:50:39;;;;;;;8.95;6.90;;;;;;;;;;5053491;28;20029;-58
2023/10/06 01:53:07;;;;;;;10.65;7.45;;;;;;;;;;5053378;28;20133;-58
2023/10/06 01:55:37;;;;;;;11.77;8.00;;;;;;;;;;5053289;28;20025;-58
2023/10/06 01:58:04;;;;;;;;;;;;;;;;;;5053670;28;20098;-58
2023/10/06 02:00:35;;;;;;;9.65;7.20;;;;;;;;;;5053701;28;19912;-58
2023/10/06 02:03:10;;;;;;;9.57;6.82;;;;;;;;;;5053352;28;20078;-58
2023/10/06 02:05:38;;;;;;;9.27;7.13;;;;;;;;;;5053922;28;20033;-58
2023/10/06 02:08:04;;;;;;;9.35;8.23;;;;;;;;;;5053979;28;20052;-58
2023/10/06 02:10:32;;;;;;;14.57;8.43;;;;;;;;;;5053730;28;20461;-58
2023/10/06 02:12:58;;;;;;;10.45;8.30;;;;;;;;;;5053637;28;20136;-58
2023/10/06 02:15:24;;;;;;;9.27;8.18;;;;;;;;;;5052891;28;20531;-58
2023/10/06 02:17:50;;;;;;;9.95;7.75;;;;;;;;;;5053164;28;20053;-58
2023/10/06 02:20:30;;;;;;;9.10;7.38;;;;;;;;;;5052912;28;20379;-58
2023/10/06 02:22:59;;;;;;;10.40;7.47;;;;;;;;;;5053346;28;20029;-58
2023/10/06 02:25:27;;;;;;;11.82;7.60;;;;;;;;;;5053595;28;20039;-58
2023/10/06 02:27:53;;;;;;;9.00;7.78;;;;;;;;;;5053032;28;20057;-58
2023/10/06 02:30:33;;;;;;;11.57;8.13;;;;;;;;;;5053647;28;20078;-58
2023/10/06 02:32:59;;;;;;;11.05;6.68;;;;;;;;;;5053698;28;20124;-58
2023/10/06 02:35:25;;;;;;;8.43;7.00;;;;;;;;;;5052513;28;20049;-58
2023/10/06 02:37:51;;;;;;;7.25;6.47;;;;;;;;;;5053651;28;20362;-58
2023/10/06 02:40:17;;;;;;;11.82;6.95;;;;;;;;;;5053708;28;20031;-58
2023/10/06 02:42:53;;;;;;;12.85;7.63;;;;;;;;;;5053394;28;20036;-58
2023/10/06 02:45:22;;;;;;;8.80;5.75;;;;;;;;;;5053479;28;20419;-58
2023/10/06 02:47:48;;;;;;;8.45;6.68;;;;;;;;;;5052596;28;20036;-58
2023/10/06 02:50:19;;;;;;;6.68;5.95;;;;;;;;;;5055723;28;20025;-58
2023/10/06 02:52:46;;;;;;;9.75;6.47;;;;;;;;;;5056641;28;20033;-58
2023/10/06 02:55:12;;;;;;;8.43;5.50;;;;;;;;;;5057170;28;20033;-58
2023/10/06 02:57:41;;;;;;;10.07;6.30;;;;;;;;;;5056662;28;20049;-58
2023/10/06 03:02:56;;;;;;;7.40;6.03;;;;;;;;;;5056348;28;20032;-58
2023/10/06 03:05:31;;;;;;;9.68;6.63;;;;;;;;;;5056625;28;20053;-58
2023/10/06 03:07:58;;;;;;;12.55;6.57;;;;;;;;;;5056462;28;20459;-58
2023/10/06 03:10:27;;;;;;;10.77;6.55;;;;;;;;;;5056778;28;20033;-58
2023/10/06 03:12:57;;;;;;;10.60;7.35;;;;;;;;;;5056605;28;20033;-58
2023/10/06 03:15:35;;;;;;;7.78;5.70;;;;;;;;;;5056045;28;20025;-58
2023/10/06 03:18:02;;;;;;;9.60;6.20;;;;;;;;;;5056544;28;20021;-58
2023/10/06 03:20:40;;;;;;;9.85;6.93;;;;;;;;;;5056876;28;20028;-58
2023/10/06 03:23:13;;;;;;;6.43;4.82;;;;;;;;;;5056519;28;20370;-58
2023/10/06 03:25:39;;;;;;;6.75;5.65;;;;;;;;;;5056482;28;20033;-58
2023/10/06 03:28:05;;;;;;;9.23;6.15;;;;;;;;;;5056298;28;20028;-58
2023/10/06 03:30:34;;;;;;;6.80;5.60;;;;;;;;;;5056194;28;20036;-58
2023/10/06 03:33:03;;;;;;;6.65;5.75;;;;;;;;;;5055682;28;20072;-58
2023/10/06 03:35:45;;;;;;;7.20;5.10;;;;;;;;;;5055472;28;20174;-58
2023/10/06 03:40:46;;;;;;;8.70;5.28;;;;;;;;;;5055736;28;20029;-58
2023/10/06 03:43:33;;;;;;;10.65;5.35;;;;;;;;;;5055549;28;20021;-58
2023/10/06 03:46:00;;;;;;;8.07;5.50;;;;;;;;;;5056079;28;20029;-58
2023/10/06 03:48:29;;;;;;;6.65;5.03;;;;;;;;;;5055498;28;20049;-58
2023/10/06 03:50:56;;;;;;;8.23;4.43;;;;;;;;;;5055976;28;20418;-58
2023/10/06 03:53:23;;;;;;;10.23;5.40;;;;;;;;;;5055412;28;20025;-58
2023/10/06 03:55:49;;;;;;;12.45;4.70;;;;;;;;;;5054754;28;20021;-58
2023/10/06 03:58:16;;;;;;;11.55;5.78;;;;;;;;;;5055272;28;20115;-58
2023/10/06 04:00:49;;;;;;;7.70;4.30;;;;;;;;;;5055093;28;20024;-58
2023/10/06 04:03:17;;;;;;;6.90;5.35;;;;;;;;;;5055897;28;20029;-58
2023/10/06 04:05:48;;;;;;;13.05;5.78;;;;;;;;;;5055813;28;20084;-58
2023/10/06 04:08:16;;;;;;;8.10;6.65;;;;;;;;;;5056027;28;20100;-58
2023/10/06 04:10:42;;;;;;;7.20;4.50;;;;;;;;;;5055990;28;20032;-58
2023/10/06 04:13:09;;;;;;;6.05;4.35;;;;;;;;;;5055552;28;20076;-58
2023/10/06 04:15:38;;;;;;;5.68;4.40;;;;;;;;;;5054776;28;20419;-58
2023/10/06 04:18:04;;;;;;;6.32;5.07;;;;;;;;;;5055114;28;20108;-58
2023/10/06 04:20:32;;;;;;;5.50;4.45;;;;;;;;;;5055081;28;20082;-58
2023/10/06 04:23:02;;;;;;;7.95;4.65;;;;;;;;;;5055429;28;20029;-58
2023/10/06 04:25:28;;;;;;;5.47;4.53;;;;;;;;;;5055428;28;20075;-58
2023/10/06 04:27:54;;;;;;;5.65;4.43;;;;;;;;;;5055076;28;20060;-58
2023/10/06 04:30:21;;;;;;;8.20;5.10;;;;;;;;;;5054830;28;20481;-58
2023/10/06 04:32:47;;;;;;;6.90;4.30;;;;;;;;;;5054686;28;20122;-58
2023/10/06 04:35:20;;;;;;;7.40;5.13;;;;;;;;;;5054653;28;20140;-58
2023/10/06 04:37:48;;;;;;;8.15;5.15;;;;;;;;;;5055099;28;20025;-58
2023/10/06 04:40:18;;;;;;;6.15;4.78;;;;;;;;;;5055391;28;20021;-58
2023/10/06 04:42:45;;;;;;;8.73;6.32;;;;;;;;;;5055066;28;20029;-58
2023/10/06 04:45:12;;;;;;;6.70;4.82;;;;;;;;;;5054465;28;20033;-58
2023/10/06 04:47:40;;;;;;;6.93;5.57;;;;;;;;;;5055233;28;20029;-58
2023/10/06 04:50:09;;;;;;;6.65;4.85;;;;;;;;;;5054884;28;20439;-58
2023/10/06 04:52:35;;;;;;;9.48;5.60;;;;;;;;;;5054233;28;20029;-58
2023/10/06 04:55:03;;;;;;;6.82;5.65;;;;;;;;;;5054241;28;20052;-58
2023/10/06 04:57:29;;;;;;;9.00;6.38;;;;;;;;;;5054339;28;20032;-58
2023/10/06 04:59:55;;;;;;;10.15;6.10;;;;;;;;;;5054470;28;20025;-58
2023/10/06 05:02:23;;;;;;;5.72;5.13;;;;;;;;;;5054034;28;20146;-58
2023/10/06 05:04:51;;;;;;;6.22;5.57;;;;;;;;;;5053417;28;20476;-58
2023/10/06 05:07:17;;;;;;;6.03;5.25;;;;;;;;;;5053821;28;20025;-58
2023/10/06 05:09:43;;;;;;;8.00;6.13;;;;;;;;;;5054690;28;20354;-58
2023/10/06 05:12:11;;;;;;;8.15;6.35;;;;;;;;;;5053203;28;20033;-58
2023/10/06 05:14:38;;;;;;;6.90;4.85;;;;;;;;;;5053971;28;20052;-58
2023/10/06 05:17:04;;;;;;;7.45;5.60;;;;;;;;;;5054685;28;20115;-58
2023/10/06 05:19:34;;;;;;;7.05;5.20;;;;;;;;;;5054625;28;20033;-58
2023/10/06 05:22:03;;;;;;;9.27;6.50;;;;;;;;;;5054612;28;20036;-58
2023/10/06 05:24:32;;;;;;;6.55;5.35;;;;;;;;;;5054322;28;20029;-58
2023/10/06 05:26:58;;;;;;;7.38;6.63;;;;;;;;;;5054435;28;20033;-58
2023/10/06 05:29:25;;;;;;;6.40;5.32;;;;;;;;;;5054571;28;20027;-58
2023/10/06 05:31:52;;;;;;;10.40;5.55;;;;;;;;;;5053596;28;20087;-58
2023/10/06 05:34:18;;;;;;;7.22;5.25;;;;;;;;;;5053496;28;20057;-58
2023/10/06 05:36:44;;;;;;;8.98;6.03;;;;;;;;;;5053864;28;20463;-58
2023/10/06 05:39:11;;;;;;;9.27;6.78;;;;;;;;;;5053669;28;20071;-58
2023/10/06 05:41:44;;;;;;;12.00;6.30;;;;;;;;;;5054141;28;20029;-58
2023/10/06 05:44:12;;;;;;;9.02;6.28;;;;;;;;;;5054006;28;20112;-58
2023/10/06 05:46:38;;;;;;;7.47;6.47;;;;;;;;;;5053900;28;20078;-58
2023/10/06 05:49:04;;;;;;;8.02;6.57;;;;;;;;;;5053546;28;20393;-58
2023/10/06 05:51:33;;;;;;;9.65;6.30;;;;;;;;;;5054114;28;20371;-58
2023/10/06 05:53:59;;;;;;;9.50;7.65;;;;;;;;;;5054414;28;20028;-58
2023/10/06 05:56:27;;;;;;;7.97;6.32;;;;;;;;;;5053477;28;20025;-58
2023/10/06 05:58:53;;;;;;;7.28;5.90;;;;;;;;;;5053475;28;20082;-58
2023/10/06 06:01:21;;;;;;;7.47;5.53;;;;;;;;;;5054016;28;20029;-58
2023/10/06 06:03:47;;;;;;;7.70;5.95;;;;;;;;;;5053304;28;20379;-58
2023/10/06 06:06:21;;;;;;;9.57;5.78;;;;;;;;;;5053225;28;20025;-58
2023/10/06 06:08:47;;;;;;;6.70;5.15;;;;;;;;;;5053618;28;20024;-58
2023/10/06 06:11:14;;;;;;;7.63;5.00;;;;;;;;;;5053887;28;20466;-58
2023/10/06 06:13:40;;;;;;;7.50;6.05;;;;;;;;;;5053177;28;20029;-58
2023/10/06 06:16:06;;;;;;;8.05;5.57;;;;;;;;;;5053256;28;20421;-58
2023/10/06 06:18:33;;;;;;;7.68;5.95;;;;;;;;;;5053742;28;20108;-58
2023/10/06 06:21:02;;;;;;;7.88;6.25;;;;;;;;;;5053866;28;20083;-58
2023/10/06 06:23:28;;;;;;;11.20;5.95;;;;;;;;;;5054615;28;20462;-58
2023/10/06 06:25:54;;;;;;;8.43;5.75;;;;;;;;;;5057118;28;20028;-58
2023/10/06 06:28:21;;;;;;;10.32;7.75;;;;;;;;;;5056871;28;20033;-58
2023/10/06 06:30:47;;;;;;;12.07;6.47;;;;;;;;;;5057158;28;20074;-58
2023/10/06 06:33:22;;;;;;;7.55;5.93;;;;;;;;;;5056918;28;20048;-58
2023/10/06 06:35:48;;;;;;;6.65;5.95;;;;;;;;;;5056484;28;20053;-58
2023/10/06 06:38:17;;;;;;;9.65;7.43;;;;;;;;;;5057449;28;20029;-58
2023/10/06 06:40:43;;;;;;;9.93;7.60;;;;;;;;;;5057496;28;20059;-58
2023/10/06 06:43:09;;;;;;;12.10;6.68;;;;;;;;;;5056797;28;20033;-58
2023/10/06 06:45:39;;;;;;;11.38;7.50;;;;;;;;;;5055421;28;20116;-58
2023/10/06 06:48:16;;;;;;;14.15;8.32;;;;;;;;;;5056970;28;20442;-58
2023/10/06 06:50:43;;;;;;;8.52;7.72;;;;;;;;;;5056968;28;20032;-58
2023/10/06 06:53:09;;;;;;;11.60;7.72;;;;;;;;;;5057322;28;20029;-58
2023/10/06 06:55:35;;;;;;;14.15;10.05;;;;;;;;;;5056580;28;20053;-58
2023/10/06 06:58:06;;;;;;;10.27;8.32;;;;;;;;;;5056550;28;20029;-58
2023/10/06 07:00:35;;;;;;;;;;;;;;;;;;5057226;28;20112;-58
2023/10/06 07:03:00;;;;;;;13.70;8.02;;;;;;;;;;5056339;28;19957;-58
2023/10/06 07:05:26;;;;;;;11.80;8.80;;;;;;;;;;5056145;28;20471;-58
2023/10/06 07:07:52;;;;;;;12.73;8.50;;;;;;;;;;5056044;28;20029;-58
2023/10/06 07:10:20;;;;;;;10.63;7.78;;;;;;;;;;5056416;28;20103;-58
2023/10/06 07:12:49;;;;;;;9.55;7.32;;;;;;;;;;5056121;28;20041;-58
2023/10/06 07:15:16;;;;;;;10.80;7.67;;;;;;;;;;5056207;28;20025;-58
2023/10/06 07:17:45;;;;;;;10.93;7.10;;;;;;;;;;5056455;28;20036;-58
2023/10/06 07:20:14;;;;;;;8.73;7.25;;;;;;;;;;5057187;28;20025;-58
2023/10/06 07:22:39;;;;;;;7.32;6.57;;;;;;;;;;5055968;28;20065;-58
2023/10/06 07:25:06;;;;;;;7.40;6.60;;;;;;;;;;5056256;28;20069;-58
2023/10/06 07:27:34;;;;;;;8.73;6.95;;;;;;;;;;5055977;28;20031;-58
2023/10/06 07:30:04;;;;;;;8.05;7.22;;;;;;;;;;5056708;28;20347;-58
2023/10/06 07:32:31;;;;;;;12.68;7.47;;;;;;;;;;5056367;28;20398;-58
2023/10/06 07:34:57;;;;;;;8.57;7.45;;;;;;;;;;5054685;28;20386;-58
2023/10/06 07:37:23;;;;;;;10.48;6.82;;;;;;;;;;5056039;28;20121;-58
2023/10/06 07:39:49;;;;;;;8.93;6.97;;;;;;;;;;5056261;28;20039;-58
2023/10/06 07:42:16;;;;;;;13.73;7.63;;;;;;;;;;5055862;28;20032;-58
2023/10/06 07:44:47;;;;;;;7.97;7.18;;;;;;;;;;5056118;28;20115;-58
2023/10/06 07:47:13;;;;;;;8.40;7.43;;;;;;;;;;5056575;28;20435;-58
2023/10/06 07:49:40;;;;;;;11.30;6.82;;;;;;;;;;5056142;28;20029;-58
2023/10/06 07:52:07;;;;;;;8.43;7.25;;;;;;;;;;5056250;28;20025;-58
2023/10/06 07:54:33;;;;;;;10.57;6.00;;;;;;;;;;5056027;28;20021;-58
2023/10/06 07:56:59;;;;;;;10.07;6.43;;;;;;;;;;5055557;28;20086;-58
2023/10/06 07:59:25;;;;;;;9.70;6.65;;;;;;;;;;5055709;28;20021;-58
2023/10/06 08:01:53;;;;;;;7.55;5.93;;;;;;;;;;5055363;28;20056;-58
2023/10/06 08:04:18;;;;;;;9.48;6.63;;;;;;;;;;5055403;28;20100;-58
2023/10/06 08:06:45;;;;;;;11.50;7.03;;;;;;;;;;5056097;28;20102;-58
2023/10/06 08:09:11;;;;;;;7.00;6.05;;;;;;;;;;5055261;28;20100;-58
2023/10/06 08:11:39;;;;;;;10.30;7.50;;;;;;;;;;5054953;28;20111;-58
2023/10/06 08:14:06;;;;;;;8.00;6.40;;;;;;;;;;5055658;28;20043;-58
2023/10/06 08:16:33;;;;;;;8.02;6.78;;;;;;;;;;5055064;28;20052;-58
2023/10/06 08:19:00;;;;;;;9.55;7.00;;;;;;;;;;5055528;28;20029;-58
2023/10/06 08:21:25;;;;;;;8.32;6.05;;;;;;;;;;5054261;28;20121;-58
2023/10/06 08:23:51;;;;;;;8.93;6.38;;;;;;;;;;5054902;28;20455;-58
2023/10/06 08:26:17;;;;;;;10.35;6.15;;;;;;;;;;5055401;28;20071;-58
2023/10/06 08:28:45;;;;;;;10.05;6.72;;;;;;;;;;5054949;28;20446;-58
2023/10/06 08:31:15;;;;;;;9.10;5.80;;;;;;;;;;5054827;28;20108;-58
2023/10/06 08:33:40;;;;;;;8.27;5.30;;;;;;;;;;5055316;28;20017;-58
2023/10/06 08:36:10;;;;;;;6.65;5.90;;;;;;;;;;5055386;28;20422;-58
2023/10/06 08:38:36;;;;;;;7.32;5.20;;;;;;;;;;5055188;28;20033;-58
2023/10/06 08:41:03;;;;;;;8.02;5.82;;;;;;;;;;5055188;28;20032;-58
2023/10/06 08:43:29;;;;;;;10.18;6.03;;;;;;;;;;5054595;28;20036;-58
2023/10/06 08:45:59;;;;;;;7.63;5.80;;;;;;;;;;5054550;28;20028;-58
2023/10/06 08:48:30;;;;;;;5.00;4.32;;;;;;;;;;5055164;28;20111;-58
2023/10/06 08:50:58;;;;;;;9.32;5.93;;;;;;;;;;5054663;28;20025;-58
2023/10/06 08:53:26;;;;;;;6.47;5.85;;;;;;;;;;5054192;28;20379;-58
2023/10/06 08:55:52;;;;;;;7.57;6.07;;;;;;;;;;5054415;28;20025;-58
2023/10/06 08:58:19;;;;;;;10.43;5.75;;;;;;;;;;5055030;28;20029;-58
2023/10/06 09:00:46;;;;;;;11.50;6.85;;;;;;;;;;5055019;28;20113;-58
2023/10/06 09:03:14;;;;;;;7.18;5.50;;;;;;;;;;5055044;28;20056;-58
2023/10/06 09:05:44;;;;;;;8.75;6.07;;;;;;;;;;5054293;28;20439;-58
2023/10/06 09:08:11;;;;;;;8.52;5.72;;;;;;;;;;5054136;28;20021;-58
2023/10/06 09:10:41;;;;;;;7.68;5.95;;;;;;;;;;5054683;28;20104;-58
2023/10/06 09:13:08;;;;;;;6.82;5.10;;;;;;;;;;5054041;28;20032;-58
2023/10/06 09:15:35;;;;;;;7.18;5.75;;;;;;;;;;5054602;28;20121;-58
2023/10/06 09:18:02;;;;;;;6.05;5.13;;;;;;;;;;5053912;28;20191;-58
2023/10/06 09:20:29;;;;;;;9.25;6.15;;;;;;;;;;5053869;28;20471;-58
2023/10/06 09:22:55;;;;;;;10.13;5.93;;;;;;;;;;5054346;28;20076;-58
2023/10/06 09:25:21;;;;;;;7.78;5.72;;;;;;;;;;5053811;28;20379;-58
2023/10/06 09:27:48;;;;;;;7.88;4.57;;;;;;;;;;5053845;28;20036;-58
2023/10/06 09:30:20;;;;;;;8.45;5.55;;;;;;;;;;5053753;28;20494;-58
2023/10/06 09:32:46;;;;;;;6.63;5.00;;;;;;;;;;5053969;28;20036;-59
2023/10/06 09:35:19;;;;;;;6.47;4.65;;;;;;;;;;5053727;28;20128;-58
2023/10/06 09:37:46;;;;;;;7.97;5.15;;;;;;;;;;5053665;28;20040;-58
2023/10/06 09:40:20;;;;;;;6.70;5.07;;;;;;;;;;5054227;28;20025;-58
2023/10/06 09:42:50;;;;;;;8.63;5.43;;;;;;;;;;5054348;28;20040;-59
2023/10/06 09:45:21;;;;;;;6.35;5.00;;;;;;;;;;5053589;28;20029;-58
2023/10/06 09:47:50;;;;;;;8.88;5.45;;;;;;;;;;5053719;28;20478;-58
2023/10/06 09:50:21;;;;;;;15.77;5.97;;;;;;;;;;5053558;28;20375;-58
2023/10/06 09:52:48;;;;;;;11.00;5.25;;;;;;;;;;5053966;28;20033;-58
2023/10/06 09:55:23;;;;;;;8.43;5.13;;;;;;;;;;5053249;28;20561;-59
2023/10/06 09:57:52;;;;;;;8.00;4.28;;;;;;;;;;5055227;28;20417;-58
2023/10/06 10:00:19;;;;;;;7.75;5.15;;;;;;;;;;5060411;28;20417;-59
2023/10/06 10:02:48;;;;;;;6.88;4.55;;;;;;;;;;5060871;28;20067;-58
2023/10/06 10:05:18;;;;;;;5.15;4.03;;;;;;;;;;5059711;28;20474;-59
2023/10/06 10:07:46;;;;;;;7.75;4.72;;;;;;;;;;5060558;28;20025;-59
2023/10/06 10:10:12;;;;;;;7.53;4.63;;;;;;;;;;5060582;28;20029;-59
2023/10/06 10:12:52;;;;;;;6.50;4.93;;;;;;;;;;5060168;28;20537;-59
2023/10/06 10:15:27;;;;;;;6.07;4.82;;;;;;;;;;5059951;28;20467;-58
2023/10/06 10:18:16;;;;;;;11.30;5.07;;;;;;;;;;5060772;28;20518;-59
2023/10/06 10:20:46;;;;;;;5.65;4.20;;;;;;;;;;5060131;28;20029;-58
2023/10/06 10:23:18;;;;;;;6.70;5.30;;;;;;;;;;5060971;28;20036;-59
2023/10/06 10:25:45;;;;;;;6.68;4.45;;;;;;;;;;5059913;28;20021;-59
2023/10/06 10:28:19;;;;;;;7.32;4.70;;;;;;;;;;5060377;28;20091;-59
2023/10/06 10:30:57;;;;;;;6.07;4.00;;;;;;;;;;5060158;28;20036;-59
2023/10/06 10:33:24;;;;;;;6.40;4.40;;;;;;;;;;5059830;28;20041;-59
2023/10/06 10:36:14;;;;;;;9.90;4.68;;;;;;;;;;5060608;28;20447;-59
2023/10/06 10:38:41;;;;;;;13.90;2.90;;;;;;;;;;5059768;28;20021;-59
2023/10/06 10:41:08;;;;;;;6.63;4.55;;;;;;;;;;5060340;28;20040;-59
2023/10/06 10:43:37;;;;;;;6.03;4.40;;;;;;;;;;5059734;28;20032;-58
2023/10/06 10:46:06;;;;;;;5.75;4.32;;;;;;;;;;5059772;28;20104;-59
2023/10/06 10:48:37;;;;;;;9.32;3.83;;;;;;;;;;5059696;28;20082;-59
2023/10/06 10:51:11;;;;;;;6.15;3.42;;;;;;;;;;5060040;28;20025;-59
2023/10/06 10:53:41;;;;;;;4.95;3.50;;;;;;;;;;5059930;28;20076;-59
2023/10/06 10:56:13;;;;;;;6.07;4.03;;;;;;;;;;5059660;28;20070;-59
2023/10/06 10:58:45;;;;;;;5.40;3.67;;;;;;;;;;5059603;28;20112;-59
2023/10/06 11:01:24;;;;;;;5.18;3.72;;;;;;;;;;5059618;28;20029;-59
2023/10/06 11:04:08;;;;;;;7.18;2.90;;;;;;;;;;5059519;28;20368;-59
2023/10/06 11:06:35;;;;;;;7.97;3.40;;;;;;;;;;5059528;28;20146;-59
2023/10/06 11:11:46;;;;;;;7.93;3.28;;;;;;;;;;5056225;28;20094;-59
2023/10/06 11:14:12;;;;;;;4.28;2.75;;;;;;;;;;5056313;28;20025;-59
2023/10/06 11:16:44;;;;;;;6.43;3.42;;;;;;;;;;5056365;28;20126;-59
2023/10/06 11:19:15;;;;;;;9.38;3.78;;;;;;;;;;5056442;28;20096;-59
2023/10/06 11:21:41;;;;;;;5.00;3.13;;;;;;;;;;5057073;28;20064;-59
2023/10/06 11:24:07;;;;;;;6.28;3.78;;;;;;;;;;5056073;28;20053;-59
2023/10/06 11:26:33;;;;;;;5.18;2.92;;;;;;;;;;5056115;28;20025;-59
2023/10/06 11:29:02;;;;;;;5.03;3.72;;;;;;;;;;5055942;28;20025;-59
2023/10/06 11:31:28;;;;;;;4.50;2.92;;;;;;;;;;5056148;28;20376;-59
2023/10/06 11:33:54;;;;;;;5.60;4.13;;;;;;;;;;5055931;28;20021;-59
2023/10/06 11:36:21;;;;;;;7.28;3.67;;;;;;;;;;5055761;28;20060;-59
2023/10/06 11:38:47;;;;;;;5.10;2.97;;;;;;;;;;5055751;28;20013;-59
2023/10/06 11:41:21;;;;;;;4.82;3.42;;;;;;;;;;5056186;28;20025;-59
2023/10/06 11:43:58;;;;;;;6.32;3.85;;;;;;;;;;5055968;28;20068;-59
2023/10/06 11:46:24;;;;;;;5.68;4.10;;;;;;;;;;5055657;28;20105;-59
2023/10/06 11:48:52;;;;;;;7.60;4.00;;;;;;;;;;5055578;28;20032;-59
2023/10/06 11:51:18;;;;;;;5.90;3.35;;;;;;;;;;5056173;28;20013;-59
2023/10/06 11:53:44;;;;;;;5.28;3.40;;;;;;;;;;5055626;28;20040;-59
2023/10/06 11:56:15;;;;;;;6.22;3.85;;;;;;;;;;5055512;28;20036;-59
2023/10/06 11:58:41;;;;;;;5.88;3.28;;;;;;;;;;5055429;28;20029;-59
2023/10/06 12:01:31;;;;;;;6.68;3.55;;;;;;;;;;5055840;28;20025;-59
2023/10/06 12:04:00;;;;;;;6.00;3.50;;;;;;;;;;5055728;28;20025;-59
2023/10/06 12:06:27;;;;;;;4.57;2.70;;;;;;;;;;5055904;28;20029;-59
2023/10/06 12:08:53;;;;;;;6.05;3.45;;;;;;;;;;5055154;28;20021;-59
2023/10/06 12:11:22;;;;;;;7.32;3.75;;;;;;;;;;5055395;28;20025;-59
2023/10/06 12:13:48;;;;;;;5.38;3.58;;;;;;;;;;5055390;28;20036;-59
2023/10/06 12:16:17;;;;;;;6.13;3.60;;;;;;;;;;5055303;28;20451;-59
2023/10/06 12:18:44;;;;;;;7.05;3.65;;;;;;;;;;5055451;28;20059;-59
2023/10/06 12:21:14;;;;;;;5.53;3.80;;;;;;;;;;5054993;28;20036;-59
2023/10/06 12:23:40;;;;;;;4.97;3.15;;;;;;;;;;5054983;28;20022;-59
2023/10/06 12:26:06;;;;;;;5.65;3.30;;;;;;;;;;5055553;28;20040;-59
2023/10/06 12:28:33;;;;;;;7.93;4.25;;;;;;;;;;5054869;28;20017;-59
2023/10/06 12:31:00;;;;;;;7.93;4.40;;;;;;;;;;5055739;28;20363;-59
2023/10/06 12:33:26;;;;;;;5.50;3.20;;;;;;;;;;5054702;28;20038;-59
2023/10/06 12:35:52;;;;;;;6.10;4.47;;;;;;;;;;5055374;28;20092;-59
2023/10/06 12:38:18;;;;;;;9.02;3.70;;;;;;;;;;5055522;28;20021;-59
2023/10/06 12:40:48;;;;;;;5.85;3.72;;;;;;;;;;5055316;28;20049;-59
2023/10/06 12:43:14;;;;;;;6.32;4.05;;;;;;;;;;5054619;28;20425;-59
2023/10/06 12:45:40;;;;;;;6.20;4.20;;;;;;;;;;5054661;28;20025;-59
2023/10/06 12:48:07;;;;;;;8.07;4.55;;;;;;;;;;5055322;28;20354;-59
2023/10/06 12:50:40;;;;;;;5.85;3.78;;;;;;;;;;5055339;28;20351;-59
2023/10/06 12:53:11;;;;;;;5.75;3.28;;;;;;;;;;5054903;28;20033;-59
2023/10/06 12:55:41;;;;;;;5.95;3.33;;;;;;;;;;5054936;28;20056;-59
2023/10/06 12:58:11;;;;;;;4.95;3.55;;;;;;;;;;5054147;28;20112;-59
2023/10/06 13:00:42;;;;;;;6.82;4.07;;;;;;;;;;5054188;28;20044;-59
2023/10/06 13:03:17;;;;;;;6.38;3.90;;;;;;;;;;5054263;28;20467;-59
2023/10/06 13:05:47;;;;;;;7.22;4.35;;;;;;;;;;5054517;28;20025;-59
2023/10/06 13:08:24;;;;;;;5.90;4.00;;;;;;;;;;5053818;28;20096;-59
2023/10/06 13:10:52;;;;;;;9.18;4.35;;;;;;;;;;5054707;28;20243;-59
2023/10/06 13:13:18;;;;;;;5.40;3.45;;;;;;;;;;5054060;28;20037;-59
2023/10/06 13:15:45;;;;;;;7.78;3.58;;;;;;;;;;5054499;28;20031;-59
2023/10/06 13:18:11;;;;;;;5.85;4.15;;;;;;;;;;5053936;28;20026;-59
2023/10/06 13:20:41;;;;;;;12.68;3.83;;;;;;;;;;5054239;28;20025;-59
2023/10/06 13:23:07;;;;;;;5.00;3.67;;;;;;;;;;5054261;28;20056;-59
2023/10/06 13:25:37;;;;;;;6.63;3.65;;;;;;;;;;5054243;28;20465;-59
2023/10/06 13:28:03;;;;;;;4.80;3.70;;;;;;;;;;5053793;28;20024;-59
2023/10/06 13:30:32;;;;;;;6.90;4.38;;;;;;;;;;5053595;28;20025;-59
2023/10/06 13:32:59;;;;;;;5.45;3.85;;;;;;;;;;5053033;28;20036;-59
2023/10/06 13:35:26;;;;;;;7.18;4.00;;;;;;;;;;5053896;28;20102;-59
2023/10/06 13:37:53;;;;;;;6.43;3.97;;;;;;;;;;5054199;28;20025;-59
2023/10/06 13:40:19;;;;;;;6.18;4.22;;;;;;;;;;5054232;28;20031;-59
2023/10/06 13:42:46;;;;;;;7.72;4.15;;;;;;;;;;5054101;28;20059;-59
2023/10/06 13:45:22;;;;;;;7.18;3.88;;;;;;;;;;5054248;28;20029;-59
2023/10/06 13:47:55;;;;;;;9.27;4.38;;;;;;;;;;5053832;28;20045;-59
2023/10/06 13:50:22;;;;;;;9.23;3.75;;;;;;;;;;5053554;28;20021;-59
2023/10/06 13:52:52;;;;;;;7.38;4.15;;;;;;;;;;5053912;28;20090;-59
2023/10/06 13:55:18;;;;;;;8.23;4.53;;;;;;;;;;5053535;28;20027;-59
2023/10/06 13:57:45;;;;;;;4.70;3.85;;;;;;;;;;5053422;28;20401;-59
2023/10/06 14:00:19;;;;;;;5.32;3.47;;;;;;;;;;5053861;28;20029;-59
2023/10/06 14:02:48;;;;;;;8.88;4.68;;;;;;;;;;5053162;28;20493;-59
2023/10/06 14:05:14;;;;;;;7.45;4.68;;;;;;;;;;5053928;28;20115;-59
2023/10/06 14:07:40;;;;;;;5.20;3.78;;;;;;;;;;5053424;28;20036;-59
2023/10/06 14:10:12;;;;;;;4.90;3.53;;;;;;;;;;5053505;28;20025;-59
2023/10/06 14:12:42;;;;;;;5.25;3.33;;;;;;;;;;5053819;28;20341;-59
2023/10/06 14:15:22;;;;;;;5.53;3.45;;;;;;;;;;5053842;28;20386;-59
2023/10/06 14:17:47;;;;;;;6.30;3.38;;;;;;;;;;5053541;28;20056;-59
2023/10/06 14:20:23;;;;;;;6.05;3.53;;;;;;;;;;5054102;28;20102;-59
2023/10/06 14:22:50;;;;;;;7.47;4.25;;;;;;;;;;5054042;28;20052;-59
2023/10/06 14:25:21;;;;;;;5.70;3.03;;;;;;;;;;5053218;28;20100;-59
2023/10/06 14:27:47;;;;;;;;;;;;;;;;;;5054414;28;20025;-59
2023/10/06 14:30:14;;;;;;;4.80;2.83;;;;;;;;;;5053741;28;19967;-59
2023/10/06 14:32:44;;;;;;;6.25;4.05;;;;;;;;;;5053009;28;20037;-59
2023/10/06 14:35:23;;;;;;;5.15;3.75;;;;;;;;;;5053702;28;20467;-59
2023/10/06 14:46:03;;;;;;;5.57;3.85;;;;;;;;;;5057105;28;20082;-59
2023/10/06 14:48:29;;;;;;;5.68;3.55;;;;;;;;;;5057559;28;20393;-59
2023/10/06 14:50:56;;;;;;;6.00;4.22;;;;;;;;;;5057214;28;20025;-59
2023/10/06 14:53:25;;;;;;;6.13;3.58;;;;;;;;;;5056580;28;20048;-59
2023/10/06 14:55:51;;;;;;;5.75;4.00;;;;;;;;;;5056679;28;20048;-59
2023/10/06 14:58:17;;;;;;;7.10;4.55;;;;;;;;;;5056905;28;20447;-59
2023/10/06 15:00:42;;;;;;;6.30;3.17;;;;;;;;;;5056672;28;20060;-59
2023/10/06 15:03:09;;;;;;;6.18;3.83;;;;;;;;;;5056859;28;20509;-59
2023/10/06 15:05:38;;;;;;;5.45;4.05;;;;;;;;;;5056510;28;20024;-59
2023/10/06 15:08:05;;;;;;;7.20;3.30;;;;;;;;;;5056230;28;20450;-59
2023/10/06 15:10:33;;;;;;;6.63;4.13;;;;;;;;;;5056973;28;20037;-59
2023/10/06 15:12:59;;;;;;;6.93;3.33;;;;;;;;;;5056207;28;20025;-59